Time;durP1;ratioP1;P1;durP2;ratioP2;P2;SDS_P1;SDS_P2;PMS_P1;PMS_P2;Temp;Humidity;BMP_temperature;BMP_pressure;BME280_temperature;BME280_humidity;BME280_pressure;Samples;Min_cycle;Max_cycle;Signal;HPM_P1;HPM_P2
2023/02/07 04:49:03;;;;;;;125.75;52.00;;;-7.60;99.90;;;;;;2604520;46;20034;31
2023/02/07 04:51:38;;;;;;;117.53;54.55;;;-7.60;99.90;;;;;;2701302;39;21674;31
2023/02/07 04:54:17;;;;;;;143.07;62.55;;;-7.60;99.90;;;;;;2702370;39;21064;31
2023/02/07 04:59:36;;;;;;;154.43;66.32;;;-7.60;99.90;;;;;;2603727;54;20057;31
2023/02/07 05:02:13;;;;;;;142.75;63.05;;;-7.70;99.90;;;;;;2603477;54;20026;31
2023/02/07 05:04:57;;;;;;;126.35;55.40;;;-7.60;99.90;;;;;;2603570;54;20042;31
2023/02/07 05:07:32;;;;;;;140.07;61.63;;;-7.70;99.90;;;;;;2603473;54;20027;31
2023/02/07 05:10:10;;;;;;;157.20;67.53;;;-7.70;99.90;;;;;;2603614;54;19935;31
2023/02/07 05:12:46;;;;;;;151.70;67.90;;;-7.70;99.90;;;;;;2603751;54;20085;31
2023/02/07 05:15:22;;;;;;;153.50;69.13;;;-7.70;99.90;;;;;;2603742;54;20027;31
2023/02/07 05:18:00;;;;;;;143.93;65.68;;;-7.70;99.90;;;;;;2621886;46;20037;31
2023/02/07 05:20:37;;;;;;;150.57;66.53;;;-7.70;99.90;;;;;;2603752;54;20026;31
2023/02/07 05:23:15;;;;;;;147.65;65.07;;;-7.70;99.90;;;;;;2603298;54;20026;31
2023/02/07 05:28:57;;;;;;;149.55;65.15;;;-7.70;99.90;;;;;;2602853;54;20030;31
2023/02/07 05:34:37;;;;;;;133.70;59.17;;;-7.70;99.90;;;;;;2611081;54;21199;31
2023/02/07 05:40:22;;;;;;;140.52;63.22;;;-7.70;99.90;;;;;;2602774;54;20853;31
2023/02/07 05:43:08;;;;;;;144.43;64.57;;;-7.70;99.90;;;;;;2603015;54;20890;31
2023/02/07 05:45:44;;;;;;;153.23;65.88;;;-7.70;99.90;;;;;;2621544;46;20033;31
2023/02/07 05:48:19;;;;;;;;;;;-7.70;99.90;;;;;;2603642;54;20031;31
2023/02/07 05:53:56;;;;;;;112.90;51.10;;;-7.70;99.90;;;;;;2602934;54;20766;31
2023/02/07 05:56:46;;;;;;;129.18;59.20;;;-7.70;99.90;;;;;;2621493;46;20063;31
2023/02/07 06:05:39;;;;;;;132.70;62.90;;;-7.80;99.90;;;;;;2610553;54;20014;31
2023/02/07 06:08:15;;;;;;;151.73;67.15;;;-7.80;99.90;;;;;;2621559;46;20044;31
2023/02/07 06:10:50;;;;;;;148.02;65.88;;;-7.80;99.90;;;;;;2602522;54;20880;31
2023/02/07 06:16:32;;;;;;;129.05;60.45;;;-7.80;99.90;;;;;;2603316;54;20083;31
2023/02/07 06:19:07;;;;;;;137.63;64.47;;;-7.70;99.90;;;;;;2603345;54;20018;31
2023/02/07 07:47:43;;;;;;;89.63;43.58;;;-2.00;99.90;;;;;;2602678;54;20864;31
2023/02/07 07:50:21;;;;;;;84.65;39.80;;;-1.70;99.90;;;;;;2603314;54;20038;31
2023/02/07 07:53:00;;;;;;;79.43;38.33;;;-1.40;99.90;;;;;;2602908;54;20875;31
2023/02/07 07:55:39;;;;;;;77.60;38.45;;;-1.20;99.90;;;;;;2711241;39;20477;31
2023/02/07 07:58:17;;;;;;;81.97;42.20;;;-0.90;99.90;;;;;;2603283;54;20960;31
2023/02/07 08:00:57;;;;;;;83.68;43.80;;;-0.60;99.90;;;;;;2609325;46;21742;31
2023/02/07 08:03:38;;;;;;;85.15;43.35;;;-0.30;99.90;;;;;;2603090;54;20353;31
2023/02/07 08:06:15;;;;;;;92.53;46.10;;;-0.10;99.90;;;;;;2613386;46;21060;31
2023/02/07 08:08:55;;;;;;;90.55;49.47;;;0.10;99.90;;;;;;2603104;54;20058;31
2023/02/07 08:11:32;;;;;;;90.05;45.83;;;0.20;99.90;;;;;;2603910;54;20023;31
2023/02/07 08:14:07;;;;;;;;;;;0.40;99.90;;;;;;2603969;54;20106;31
2023/02/07 08:16:44;;;;;;;92.60;48.35;;;0.50;99.90;;;;;;2622169;46;20694;31
2023/02/07 08:23:03;;;;;;;85.53;47.33;;;1.00;99.90;;;;;;2611389;54;20030;31
2023/02/07 08:47:03;;;;;;;81.68;44.65;;;1.10;99.90;;;;;;2611271;54;20038;31
2023/02/07 08:55:38;;;;;;;85.47;48.65;;;2.20;99.90;;;;;;2603785;54;20915;31
2023/02/07 08:58:19;;;;;;;69.15;40.95;;;2.50;99.90;;;;;;2603247;54;20057;31
2023/02/07 09:01:01;;;;;;;68.88;39.40;;;2.70;99.90;;;;;;2603486;54;20753;31
2023/02/07 09:03:49;;;;;;;72.30;40.25;;;2.90;99.90;;;;;;2603613;54;20779;31
2023/02/07 09:06:32;;;;;;;72.45;42.13;;;3.10;99.90;;;;;;2603559;54;20027;31
2023/02/07 09:09:10;;;;;;;64.15;37.15;;;3.20;99.90;;;;;;2602899;54;20847;31
2023/02/07 09:11:48;;;;;;;70.28;38.88;;;3.30;99.90;;;;;;2603098;54;20163;31
2023/02/07 09:14:26;;;;;;;69.40;36.83;;;3.40;99.90;;;;;;2621356;46;20049;31
2023/02/07 09:17:01;;;;;;;66.57;38.23;;;3.50;99.90;;;;;;2603404;54;20893;31
2023/02/07 09:19:39;;;;;;;67.20;38.03;;;3.50;99.90;;;;;;2603456;54;21209;31
2023/02/07 09:22:27;;;;;;;65.55;39.75;;;3.70;99.90;;;;;;2603395;54;21076;31
2023/02/07 09:25:12;;;;;;;63.08;35.10;;;3.90;99.90;;;;;;2603398;54;20081;31
2023/02/07 09:27:54;;;;;;;58.85;35.42;;;3.90;99.90;;;;;;2602768;54;20019;31
2023/02/07 09:30:32;;;;;;;61.55;34.47;;;4.00;99.90;;;;;;2602765;54;20917;31
2023/02/07 09:33:11;;;;;;;54.10;31.40;;;4.20;99.90;;;;;;2603577;54;20140;31
2023/02/07 09:35:49;;;;;;;45.63;26.60;;;4.20;99.90;;;;;;2603698;54;20870;31
2023/02/07 09:38:28;;;;;;;58.00;31.35;;;4.20;99.90;;;;;;2621707;46;20920;31
2023/02/07 09:41:05;;;;;;;44.45;28.42;;;4.20;99.90;;;;;;2603374;54;20038;31
2023/02/07 09:43:47;;;;;;;45.38;26.40;;;4.40;99.90;;;;;;2603563;54;20883;31
2023/02/07 09:46:23;;;;;;;50.20;27.90;;;4.50;99.90;;;;;;2603564;54;20833;31
2023/02/07 09:49:05;;;;;;;47.17;28.02;;;4.70;99.90;;;;;;2621320;46;20026;31
2023/02/07 09:51:42;;;;;;;51.20;28.45;;;4.70;99.90;;;;;;2603579;54;20026;31
2023/02/07 09:54:23;;;;;;;44.13;26.30;;;4.80;99.90;;;;;;2603313;54;20771;31
2023/02/07 09:57:02;;;;;;;45.38;27.50;;;4.80;99.90;;;;;;2621871;46;20037;31
2023/02/07 09:59:45;;;;;;;50.20;29.17;;;4.90;99.90;;;;;;2602756;54;20092;31
2023/02/07 10:02:29;;;;;;;46.70;28.88;;;4.80;99.90;;;;;;2602517;54;20797;31
2023/02/07 10:05:09;;;;;;;44.30;25.60;;;4.80;99.90;;;;;;2608535;46;20029;31
2023/02/07 10:07:46;;;;;;;29.87;17.30;;;4.80;99.90;;;;;;2603261;54;20962;31
2023/02/07 10:10:20;;;;;;;32.80;20.73;;;4.80;99.90;;;;;;2603453;54;20246;31
2023/02/07 10:13:22;;;;;;;28.63;16.75;;;4.80;99.90;;;;;;2603293;54;20082;31
2023/02/07 10:16:03;;;;;;;27.40;15.53;;;4.90;99.90;;;;;;2606714;46;20034;31
2023/02/07 10:18:46;;;;;;;31.15;18.52;;;4.90;99.90;;;;;;2602533;54;20272;31
2023/02/07 10:21:27;;;;;;;32.20;17.70;;;4.90;99.90;;;;;;2603316;54;20162;31
2023/02/07 10:24:37;;;;;;;27.30;16.50;;;4.90;99.90;;;;;;2603186;54;20026;31
2023/02/07 10:27:13;;;;;;;21.27;11.90;;;5.00;99.90;;;;;;2603244;54;20030;31
2023/02/07 10:29:56;;;;;;;18.00;11.33;;;5.10;99.90;;;;;;2720414;39;20553;31
2023/02/07 10:32:35;;;;;;;22.20;12.43;;;5.10;99.90;;;;;;2602383;54;20742;31
2023/02/07 10:35:23;;;;;;;25.52;16.15;;;5.10;99.90;;;;;;2621475;46;20240;31
2023/02/07 10:38:04;;;;;;;25.90;15.65;;;5.00;99.90;;;;;;2603176;54;19950;31
2023/02/07 10:43:33;;;;;;;28.50;16.03;;;4.80;99.90;;;;;;2603309;54;20061;31
2023/02/07 10:49:01;;;;;;;28.00;15.87;;;4.70;99.90;;;;;;2621869;46;20038;31
2023/02/07 10:51:39;;;;;;;29.55;16.92;;;4.60;99.90;;;;;;2603074;54;20085;31
2023/02/07 10:54:16;;;;;;;31.53;17.63;;;4.70;99.90;;;;;;2621405;46;19956;31
2023/02/07 10:56:56;;;;;;;28.30;17.55;;;4.60;99.90;;;;;;2603177;54;20035;31
2023/02/07 10:59:36;;;;;;;26.57;15.60;;;4.60;99.90;;;;;;2603278;54;20581;31
2023/02/07 11:02:39;;;;;;;29.40;16.50;;;4.60;99.90;;;;;;2603025;54;20234;31
2023/02/07 11:05:34;;;;;;;36.72;18.92;;;4.50;99.90;;;;;;2621906;46;20041;31
2023/02/07 11:08:25;;;;;;;36.93;17.07;;;4.40;99.90;;;;;;2603121;54;20027;31
2023/02/07 11:11:01;;;;;;;28.58;16.60;;;4.50;99.90;;;;;;2621685;46;20266;31
2023/02/07 11:13:47;;;;;;;27.83;17.55;;;4.50;99.90;;;;;;2621500;46;20027;31
2023/02/07 11:22:20;;;;;;;30.67;18.17;;;4.40;99.90;;;;;;2602156;54;20030;31
2023/02/07 11:33:57;;;;;;;25.52;15.95;;;3.80;99.90;;;;;;2603030;54;20023;31
2023/02/07 11:36:37;;;;;;;27.20;17.10;;;3.70;99.90;;;;;;2603026;54;20038;31
2023/02/07 11:39:22;;;;;;;27.10;17.23;;;3.60;99.90;;;;;;2603239;54;20026;31
2023/02/07 11:57:11;;;;;;;28.27;16.58;;;3.10;99.90;;;;;;2602811;54;20026;31
2023/02/07 12:03:15;;;;;;;31.60;16.10;;;3.10;99.90;;;;;;2602952;54;20747;31
2023/02/07 12:18:39;;;;;;;25.00;14.95;;;2.90;99.90;;;;;;2602394;54;19999;31
2023/02/07 12:21:29;;;;;;;25.45;14.18;;;2.80;99.90;;;;;;2602953;54;20027;31
2023/02/07 12:24:21;;;;;;;23.38;13.68;;;2.80;99.90;;;;;;2602824;54;20023;31
2023/02/07 12:35:42;;;;;;;24.13;15.52;;;2.60;99.90;;;;;;2603674;54;20053;31
2023/02/07 12:44:18;;;;;;;27.88;15.70;;;2.40;99.90;;;;;;2602944;54;20814;31
2023/02/07 12:47:12;;;;;;;28.15;16.10;;;2.40;99.90;;;;;;2603568;54;20026;31
2023/02/07 12:52:53;;;;;;;26.58;14.77;;;2.30;99.90;;;;;;2701972;39;21675;31
2023/02/07 12:55:36;;;;;;;25.93;16.00;;;2.30;99.90;;;;;;2622005;46;20031;31
2023/02/07 12:58:20;;;;;;;24.03;15.00;;;2.40;99.90;;;;;;2606913;46;22468;31
2023/02/07 13:01:00;;;;;;;27.90;15.45;;;2.30;99.90;;;;;;2603625;54;20862;31
2023/02/07 13:03:44;;;;;;;26.90;15.10;;;2.30;99.90;;;;;;2603626;54;20030;31
2023/02/07 13:06:27;;;;;;;26.17;16.25;;;2.30;99.90;;;;;;2622279;46;20029;31
2023/02/07 13:09:10;;;;;;;25.98;15.60;;;2.30;99.90;;;;;;2622420;46;20147;31
2023/02/07 13:11:55;;;;;;;24.50;16.05;;;2.20;99.90;;;;;;2603516;54;20611;31
2023/02/07 13:14:38;;;;;;;30.58;16.63;;;2.20;99.90;;;;;;2602730;54;20082;31
2023/02/07 13:17:20;;;;;;;25.27;16.15;;;2.30;99.90;;;;;;2602887;54;20866;31
2023/02/07 13:20:06;;;;;;;29.15;16.52;;;2.30;99.90;;;;;;2604075;46;20034;31
2023/02/07 13:22:50;;;;;;;29.05;16.00;;;2.30;99.90;;;;;;2603554;54;20909;31
2023/02/07 13:25:37;;;;;;;24.52;15.18;;;2.20;99.90;;;;;;2621763;46;20927;31
2023/02/07 13:28:16;;;;;;;27.60;15.55;;;2.20;99.90;;;;;;2603235;54;20812;31
2023/02/07 13:30:52;;;;;;;26.88;16.67;;;2.10;99.90;;;;;;2621760;46;20033;31
2023/02/07 13:33:32;;;;;;;37.15;16.10;;;2.10;99.90;;;;;;2621352;46;20021;31
2023/02/07 13:36:22;;;;;;;29.50;16.83;;;2.10;99.90;;;;;;2603316;54;20942;31
2023/02/07 13:47:57;;;;;;;27.17;15.98;;;2.10;99.90;;;;;;2603322;54;21064;31
2023/02/07 13:50:45;;;;;;;25.25;17.33;;;2.00;99.90;;;;;;2603623;54;20031;31
2023/02/07 13:53:33;;;;;;;28.60;16.65;;;2.00;99.90;;;;;;2603353;54;20038;31
2023/02/07 13:59:37;;;;;;;29.15;16.60;;;2.00;99.90;;;;;;2603507;54;20081;31
2023/02/07 13:59:38;;;;;;;27.92;16.08;;;1.90;99.90;;;;;;2603421;54;20034;31
2023/02/07 14:02:11;;;;;;;24.80;15.07;;;1.90;99.90;;;;;;2621993;46;20847;31
2023/02/07 14:08:27;;;;;;;63.08;30.15;;;1.90;99.90;;;;;;2603451;54;20042;31
2023/02/07 14:11:06;;;;;;;39.03;16.73;;;1.80;99.90;;;;;;2603420;54;20053;31
2023/02/07 14:13:46;;;;;;;29.25;17.65;;;1.80;99.90;;;;;;2602460;54;20887;31
2023/02/07 14:19:00;;;;;;;31.50;17.67;;;1.80;99.90;;;;;;2602662;54;20036;31
2023/02/07 14:21:38;;;;;;;;;;;1.70;99.90;;;;;;2603614;54;20026;31
2023/02/07 14:24:38;;;;;;;38.38;21.13;;;1.70;99.90;;;;;;2621887;46;19934;31
2023/02/07 14:28:10;;;;;;;31.00;16.97;;;1.70;99.90;;;;;;2603252;54;20107;31
2023/02/07 14:31:07;;;;;;;31.13;16.17;;;1.60;99.90;;;;;;2603300;54;20896;31
2023/02/07 14:33:48;;;;;;;29.73;14.25;;;1.60;99.90;;;;;;2603437;54;20925;31
2023/02/07 14:45:47;;;;;;;31.75;17.27;;;1.40;99.90;;;;;;2602328;54;20785;31
2023/02/07 14:48:33;;;;;;;35.33;17.15;;;1.40;99.90;;;;;;2603503;54;20026;31
2023/02/07 14:54:20;;;;;;;32.20;17.40;;;1.30;99.90;;;;;;2602458;54;20023;31
2023/02/07 14:57:06;;;;;;;28.80;17.75;;;1.30;99.90;;;;;;2603113;54;20111;31
2023/02/07 15:02:40;;;;;;;37.53;18.67;;;1.20;99.90;;;;;;2603016;54;20031;31
2023/02/07 15:05:27;;;;;;;32.65;18.52;;;1.20;99.90;;;;;;2621553;46;20048;31
2023/02/07 15:10:41;;;;;;;29.95;19.20;;;1.10;99.90;;;;;;2622078;46;21086;31
2023/02/07 15:13:21;;;;;;;36.03;20.67;;;1.10;99.90;;;;;;2603299;54;20029;31
2023/02/07 15:16:00;;;;;;;33.75;20.80;;;1.00;99.90;;;;;;2603218;54;20054;31
2023/02/07 15:18:42;;;;;;;37.60;21.88;;;1.00;99.90;;;;;;2603130;54;20112;31
2023/02/07 15:21:19;;;;;;;34.15;20.60;;;1.00;99.90;;;;;;2603254;54;20061;31
2023/02/07 15:23:57;;;;;;;37.30;20.35;;;1.00;99.90;;;;;;2603285;54;20113;31
2023/02/07 15:26:35;;;;;;;34.05;19.45;;;0.90;99.90;;;;;;2603024;54;20829;31
2023/02/07 15:29:21;;;;;;;39.77;22.47;;;0.80;99.90;;;;;;2621424;47;20116;31
2023/02/07 15:32:06;;;;;;;36.28;21.05;;;0.80;99.90;;;;;;2621529;47;20239;31
2023/02/07 15:34:51;;;;;;;42.80;23.33;;;0.80;99.90;;;;;;2603076;54;19990;31
2023/02/07 15:37:29;;;;;;;49.80;28.17;;;0.80;99.90;;;;;;2621648;47;20191;31
2023/02/07 15:40:10;;;;;;;46.03;26.13;;;0.80;99.90;;;;;;2603004;54;20853;31
2023/02/07 15:42:58;;;;;;;43.20;25.67;;;0.80;99.90;;;;;;2603103;54;20316;31
2023/02/07 15:48:27;;;;;;;38.17;21.03;;;0.90;99.90;;;;;;2603039;54;20056;31
2023/02/07 15:51:11;;;;;;;49.15;27.17;;;0.90;99.90;;;;;;2610355;47;20911;31
2023/02/07 15:56:57;;;;;;;41.13;24.08;;;0.80;99.90;;;;;;2602799;54;20026;31
2023/02/07 15:59:32;;;;;;;55.33;30.35;;;0.80;99.90;;;;;;2621269;47;20030;31
2023/02/07 16:02:17;;;;;;;51.80;26.90;;;0.80;99.90;;;;;;2620883;47;20019;31
2023/02/07 16:04:52;;;;;;;48.45;27.13;;;0.80;99.90;;;;;;2621346;47;20089;31
2023/02/07 16:07:30;;;;;;;45.00;25.05;;;0.80;99.90;;;;;;2603276;54;20910;31
2023/02/07 16:12:48;;;;;;;43.70;22.38;;;0.70;99.90;;;;;;2603734;54;20027;31
2023/02/07 16:15:29;;;;;;;47.65;24.48;;;0.70;99.90;;;;;;2603647;54;20045;31
2023/02/07 16:30:08;;;;;;;42.22;24.63;;;0.50;99.90;;;;;;2602941;54;20863;31
2023/02/07 16:32:54;;;;;;;34.50;21.25;;;0.50;99.90;;;;;;2603058;54;20044;31
2023/02/07 16:35:43;;;;;;;39.38;24.60;;;0.50;99.90;;;;;;2603067;54;20941;31
2023/02/07 16:38:21;;;;;;;77.40;43.90;;;0.40;99.90;;;;;;2603564;54;20045;31
2023/02/07 16:40:55;;;;;;;180.80;90.90;;;0.50;99.90;;;;;;2603761;54;20030;31
2023/02/07 16:43:43;;;;;;;74.50;41.92;;;0.50;99.90;;;;;;2603621;54;20026;31
2023/02/07 16:46:26;;;;;;;48.20;28.40;;;0.50;99.90;;;;;;2603452;54;20896;31
2023/02/07 16:49:07;;;;;;;48.45;26.30;;;0.50;99.90;;;;;;2603493;54;20061;31
2023/02/07 16:51:47;;;;;;;55.85;31.60;;;0.40;99.90;;;;;;2603653;54;20076;31
2023/02/07 16:54:26;;;;;;;43.75;26.77;;;0.40;99.90;;;;;;2603577;54;20065;31
2023/02/07 16:57:03;;;;;;;56.60;31.70;;;0.40;99.90;;;;;;2602799;54;20085;31
2023/02/07 16:59:46;;;;;;;44.55;25.60;;;0.40;99.90;;;;;;2603341;54;20972;31
2023/02/07 17:02:25;;;;;;;49.20;25.70;;;0.50;99.90;;;;;;2603631;54;20033;31
2023/02/07 17:05:03;;;;;;;67.82;25.95;;;0.40;99.90;;;;;;2603457;54;20805;31
2023/02/07 17:07:44;;;;;;;62.45;29.80;;;0.90;99.90;;;;;;2602695;54;20085;31
2023/02/07 17:19:34;;;;;;;41.00;24.30;;;1.30;99.90;;;;;;2603352;54;20026;31
2023/02/07 17:22:29;;;;;;;40.45;22.38;;;1.20;99.90;;;;;;2621604;46;20872;31
2023/02/07 17:25:06;;;;;;;46.57;26.03;;;1.10;99.90;;;;;;2603561;54;20053;31
2023/02/07 17:30:53;;;;;;;37.67;20.85;;;0.90;99.90;;;;;;2701728;39;21549;31
2023/02/07 17:33:37;;;;;;;34.20;20.92;;;0.80;99.90;;;;;;2615744;46;20853;31
2023/02/07 17:39:26;;;;;;;32.70;18.75;;;0.60;99.90;;;;;;2602544;54;20030;31
2023/02/07 17:42:07;;;;;;;44.20;21.13;;;0.50;99.90;;;;;;2602795;54;20847;31
2023/02/07 17:44:45;;;;;;;47.10;26.30;;;0.50;99.90;;;;;;2701792;39;21625;31
2023/02/07 17:47:24;;;;;;;50.50;27.20;;;0.50;99.90;;;;;;2603336;54;20305;31
2023/02/07 17:55:48;;;;;;;44.30;24.53;;;0.30;99.90;;;;;;2603331;54;20936;31
2023/02/07 17:58:24;;;;;;;84.68;47.45;;;0.30;99.90;;;;;;2603617;54;20249;31
2023/02/07 18:01:04;;;;;;;70.78;39.33;;;0.30;99.90;;;;;;2603439;54;20031;31
2023/02/07 18:03:42;;;;;;;71.82;44.03;;;0.20;99.90;;;;;;2621901;46;20038;31
2023/02/07 18:06:33;;;;;;;50.30;26.88;;;0.20;99.90;;;;;;2603415;54;20851;31
2023/02/07 18:09:10;;;;;;;79.63;42.03;;;0.20;99.90;;;;;;2603457;54;20030;31
2023/02/07 18:11:51;;;;;;;40.22;24.25;;;0.30;99.90;;;;;;2621434;46;20033;31
2023/02/07 18:14:29;;;;;;;36.35;21.05;;;0.30;99.90;;;;;;2603444;54;20093;31
2023/02/07 18:17:16;;;;;;;33.10;18.80;;;0.20;99.90;;;;;;2603505;54;20828;31
2023/02/07 18:22:43;;;;;;;34.75;20.05;;;0.20;99.90;;;;;;2603522;54;20026;31
2023/02/07 18:35:00;;;;;;;42.80;24.15;;;0.10;99.90;;;;;;2602558;54;20034;31
2023/02/07 18:37:37;;;;;;;30.90;18.00;;;0.10;99.90;;;;;;2621860;46;20911;31
2023/02/07 18:40:33;;;;;;;35.55;19.20;;;0.10;99.90;;;;;;2621322;46;20977;31
2023/02/07 18:45:54;;;;;;;40.05;20.15;;;0.10;99.90;;;;;;2603179;46;20736;31
2023/02/07 18:48:48;;;;;;;34.75;19.50;;;0.00;99.90;;;;;;2602997;54;20121;31
2023/02/07 18:51:32;;;;;;;33.53;19.88;;;0.00;99.90;;;;;;2603283;54;20030;31
2023/02/07 19:00:36;;;;;;;34.47;20.70;;;0.00;99.90;;;;;;2701444;39;20492;31
2023/02/07 19:03:24;;;;;;;30.90;16.80;;;-0.10;99.90;;;;;;2603128;54;20895;31
2023/02/07 19:09:30;;;;;;;28.63;16.38;;;-0.10;99.90;;;;;;2610983;54;20272;31
2023/02/07 19:12:39;;;;;;;36.55;21.15;;;-0.10;99.90;;;;;;2603290;54;20042;31
2023/02/07 19:18:37;;;;;;;31.75;17.80;;;-0.20;99.90;;;;;;2603135;54;20029;31
2023/02/07 19:21:25;;;;;;;30.75;16.65;;;-0.20;99.90;;;;;;2603218;54;20052;31
2023/02/07 19:24:37;;;;;;;27.08;16.67;;;-0.20;99.90;;;;;;2603150;54;20124;31
2023/02/07 19:27:41;;;;;;;30.38;16.50;;;-0.20;99.90;;;;;;2603018;54;20037;31
2023/02/07 19:30:29;;;;;;;23.80;14.70;;;-0.10;99.90;;;;;;2621494;47;20084;31
2023/02/07 19:33:11;;;;;;;37.83;18.60;;;-0.10;99.90;;;;;;2603065;54;20114;31
2023/02/07 19:36:10;;;;;;;49.67;22.33;;;-0.10;99.90;;;;;;2621397;47;20050;31
2023/02/07 19:41:42;;;;;;;88.07;30.92;;;-0.20;99.90;;;;;;2603141;54;20097;31
2023/02/07 19:44:29;;;;;;;61.53;24.67;;;-0.20;99.90;;;;;;2603544;54;20646;31
2023/02/07 19:47:46;;;;;;;;;;;;;;;;;;;;;
2023/02/07 19:51:02;;;;;;;30.05;16.05;;;-0.20;99.90;;;;;;2603622;54;20025;31
2023/02/07 19:57:00;;;;;;;26.40;14.30;;;-0.20;99.90;;;;;;2603744;54;20890;31
2023/02/07 19:59:47;;;;;;;26.58;15.10;;;-0.20;99.90;;;;;;2622116;46;20871;31
2023/02/07 20:02:50;;;;;;;24.88;14.50;;;-0.20;99.90;;;;;;2603777;54;20038;31
2023/02/07 20:05:40;;;;;;;29.10;17.38;;;-0.20;99.90;;;;;;2621905;46;20105;31
2023/02/07 20:08:38;;;;;;;31.70;17.20;;;-0.20;99.90;;;;;;2603819;54;20026;31
2023/02/07 20:11:16;;;;;;;28.85;16.20;;;-0.20;99.90;;;;;;2603649;54;20025;31
2023/02/07 20:14:11;;;;;;;42.10;23.57;;;-0.20;99.90;;;;;;2603995;54;20025;31
2023/02/07 20:22:58;;;;;;;33.50;18.50;;;-0.20;99.90;;;;;;2611638;54;20011;31
2023/02/07 20:28:52;;;;;;;59.25;32.35;;;-0.20;99.90;;;;;;2603533;54;19935;31
2023/02/07 20:31:32;;;;;;;46.05;24.55;;;-0.20;99.90;;;;;;2621865;46;20035;31
2023/02/07 20:34:23;;;;;;;32.63;18.70;;;-0.20;99.90;;;;;;2603702;46;20027;31
2023/02/07 20:37:04;;;;;;;43.40;24.33;;;0.00;99.90;;;;;;2603764;54;20096;31
2023/02/07 20:39:43;;;;;;;46.42;27.67;;;0.00;99.90;;;;;;2603569;54;20029;31
2023/02/07 20:42:19;;;;;;;36.30;21.17;;;0.00;99.90;;;;;;2603794;54;19989;31
2023/02/07 20:45:21;;;;;;;64.05;39.42;;;0.10;99.90;;;;;;2603456;54;20081;31
2023/02/07 20:54:34;;;;;;;38.90;22.75;;;0.10;99.90;;;;;;2603341;54;20936;31
2023/02/07 20:57:31;;;;;;;32.73;20.53;;;0.00;99.90;;;;;;2603407;54;20868;31
2023/02/07 21:00:20;;;;;;;35.35;19.08;;;0.00;99.90;;;;;;2603250;54;20234;31
2023/02/07 21:06:07;;;;;;;35.22;20.05;;;-0.10;99.90;;;;;;2603688;54;20891;31
2023/02/07 21:11:47;;;;;;;35.70;20.45;;;-0.20;99.90;;;;;;2603360;54;20887;31
2023/02/07 21:18:06;;;;;;;33.10;18.20;;;-0.30;99.90;;;;;;2603266;54;20026;31
2023/02/07 21:20:53;;;;;;;55.70;27.00;;;-0.30;99.90;;;;;;2603683;54;20825;31
2023/02/07 21:23:40;;;;;;;60.95;29.67;;;-0.30;99.90;;;;;;2602636;54;20888;31
2023/02/07 21:26:22;;;;;;;138.85;61.63;;;-0.40;99.90;;;;;;2603499;54;20057;31
2023/02/07 21:29:03;;;;;;;59.67;30.23;;;-0.40;99.90;;;;;;2603305;54;20887;31
2023/02/07 21:31:59;;;;;;;51.30;26.05;;;-0.40;99.90;;;;;;2603789;54;20030;31
2023/02/07 21:37:34;;;;;;;35.03;21.93;;;-0.40;99.90;;;;;;2603421;54;21764;31
2023/02/07 21:40:28;;;;;;;26.93;17.53;;;-0.40;99.90;;;;;;2603388;54;21539;31
2023/02/07 21:43:08;;;;;;;29.57;17.17;;;-0.50;99.90;;;;;;2602897;54;20887;31
2023/02/07 21:45:56;;;;;;;28.30;15.45;;;-0.50;99.90;;;;;;2603529;54;20258;31
2023/02/07 21:48:46;;;;;;;27.80;15.30;;;-0.60;99.90;;;;;;2603589;54;20599;31
2023/02/07 21:51:43;;;;;;;37.35;19.27;;;-0.60;99.90;;;;;;2621577;46;20864;31
2023/02/07 21:57:42;;;;;;;29.02;16.42;;;-0.60;99.90;;;;;;2621993;46;20022;31
2023/02/07 22:00:31;;;;;;;34.03;16.95;;;-0.60;99.90;;;;;;2603150;54;20836;31
2023/02/07 22:03:09;;;;;;;29.33;13.93;;;-0.60;99.90;;;;;;2603589;54;20120;31
2023/02/07 22:05:50;;;;;;;28.83;15.35;;;-0.60;99.90;;;;;;2603847;46;20026;31
2023/02/07 22:08:34;;;;;;;29.90;16.52;;;-0.60;99.90;;;;;;2603286;54;21396;31
2023/02/07 22:11:15;;;;;;;30.25;17.80;;;-0.60;99.90;;;;;;2701660;39;21593;31
2023/02/07 22:13:54;;;;;;;30.57;16.20;;;-0.60;99.90;;;;;;2701715;39;21607;31
2023/02/07 22:16:43;;;;;;;28.45;16.85;;;-0.60;99.90;;;;;;2603536;54;20241;31
2023/02/07 22:19:30;;;;;;;27.35;17.65;;;-0.60;99.90;;;;;;2603394;54;21459;31
2023/02/07 22:22:05;;;;;;;29.15;17.15;;;-0.60;99.90;;;;;;2603521;54;20889;31
2023/02/07 22:24:54;;;;;;;24.95;15.73;;;-0.60;99.90;;;;;;2602683;54;21331;31
2023/02/07 22:27:35;;;;;;;27.83;15.30;;;-0.60;99.90;;;;;;2603321;54;19946;31
2023/02/07 22:33:17;;;;;;;31.90;16.65;;;-0.60;99.90;;;;;;2603214;54;20084;31
2023/02/07 22:36:15;;;;;;;31.17;16.25;;;-0.70;99.90;;;;;;2602461;54;20102;31
2023/02/07 22:39:00;;;;;;;29.67;16.77;;;-0.60;99.90;;;;;;2603309;54;19930;31
2023/02/07 22:41:41;;;;;;;28.27;15.63;;;-0.60;99.90;;;;;;2602394;54;20033;31
2023/02/07 22:44:20;;;;;;;27.40;15.10;;;-0.60;99.90;;;;;;2603375;54;20034;31
2023/02/07 22:47:15;;;;;;;28.60;16.25;;;-0.60;99.90;;;;;;2603255;54;20030;31
2023/02/07 22:49:54;;;;;;;28.90;15.37;;;-0.60;99.90;;;;;;2618976;46;21209;31
2023/02/07 22:52:38;;;;;;;25.17;14.50;;;-0.70;99.90;;;;;;2621814;46;20924;31
2023/02/07 22:58:29;;;;;;;22.70;13.32;;;-0.70;99.90;;;;;;2603273;54;20041;31
2023/02/07 23:04:37;;;;;;;24.95;13.38;;;-0.80;99.90;;;;;;2603171;54;20049;31
2023/02/07 23:16:40;;;;;;;29.90;16.23;;;-0.80;99.90;;;;;;2603018;54;20145;31
2023/02/07 23:19:49;;;;;;;30.45;17.20;;;-0.70;99.90;;;;;;2603095;54;20081;31
2023/02/07 23:23:06;;;;;;;26.92;15.40;;;-0.80;99.90;;;;;;2603113;54;20103;31
2023/02/07 23:32:15;;;;;;;22.73;13.45;;;-0.80;99.90;;;;;;2603437;54;20022;31
2023/02/07 23:37:56;;;;;;;24.05;15.10;;;-0.90;99.90;;;;;;2621455;47;20027;31
2023/02/07 23:46:34;;;;;;;29.05;14.10;;;-0.90;99.90;;;;;;2602248;54;20864;31
2023/02/07 23:52:51;;;;;;;26.30;13.10;;;-1.00;99.90;;;;;;2602612;54;20036;31
2023/02/07 23:55:42;;;;;;;23.40;12.43;;;-1.00;99.90;;;;;;2621487;47;20033;31
